ADDS METAR Data INFO
IDs: Format: Raw Decoded Include TAF

Data at: 1400 UTC 17 Dec 2017

KSDL 171353Z 03016KT 10SM -RA BKN070 OVC085 11/07 A2990 RMK AO2 SLP114 P0006 T01060072
KSDL 171253Z 05009KT 4SM +RA BR OVC050 10/09 A2990 RMK AO2 SLP115 P0021 T01000089
KSDL 171153Z AUTO 12006G15KT 3SM RA BR SCT042 BKN050 OVC070 10/08 A2990 RMK AO2 PK WND 17030/1127 WSHFT 1125 RAE13B34 SLP115 P0005 60005 70005 T01000083 10139 20089 53030
KSDL 171139Z AUTO 14014G29KT 5SM VCTS RA FEW038 BKN070 OVC100 11/06 A2989 RMK AO2 PK WND 17030/1127 WSHFT 1125 RAE13B34 PRESRR P0001 T01110061
KSDL 171053Z AUTO VRB04G20KT 10SM -RA SCT050 BKN080 OVC100 13/01 A2982 RMK AO2 LTG DSNT SE AND S RAB44 SLP086 P0000 T01280011
KSDL 170953Z AUTO 00000KT 10SM SCT110 11/M03 A2980 RMK AO2 LTG DSNT S SLP078 T01061028
KSDL 170853Z AUTO 00000KT 10SM OVC110 11/M02 A2981 RMK AO2 SLP082 T01061022 53004
KSDL 170753Z AUTO 03003KT 10SM SCT110 10/M03 A2980 RMK AO2 SLP081 T01001033
KSDL 170653Z AUTO 00000KT 10SM CLR 11/M04 A2980 RMK AO2 SLP081 T01061039 401890061
KSDL 170553Z AUTO 00000KT 10SM CLR 10/M04 A2980 RMK AO2 SLP081 T01001044 10172 20100 53009
KSDL 170453Z AUTO 00000KT 10SM CLR 12/M04 A2977 RMK AO2 SLP073 T01171039
KSDL 170353Z 00000KT 10SM CLR 12/M03 A2977 RMK AO2 SLP072 T01221033
KSDL 170253Z AUTO 03003KT 10SM CLR 12/M06 A2977 RMK AO2 SLP072 T01221056 50008
KSDL 170153Z AUTO 03003KT 10SM CLR 14/M06 A2977 RMK AO2 SLP071 T01441061
KSDL 170053Z AUTO 04003KT 10SM CLR 16/M06 A2975 RMK AO2 SLP066 T01561056
KSDL 162353Z AUTO 00000KT 10SM CLR 17/M06 A2974 RMK AO2 SLP062 T01721061 10189 20128 53000
KSDL 162253Z AUTO 16005KT 10SM CLR 18/M07 A2974 RMK AO2 SLP060 T01831067
KSDL 162153Z AUTO 16005KT 10SM CLR 18/M07 A2974 RMK AO2 SLP059 T01831067
KSDL 162053Z 13005KT 10SM CLR 18/M07 A2974 RMK AO2 SLP060 T01831067 56024
KSDL 161953Z 12007KT 10SM CLR 18/M07 A2976 RMK AO2 SLP068 T01781072
KSDL 161853Z 00000KT 10SM CLR 16/M03 A2979 RMK AO2 SLP080 T01561028
KSDL 161753Z 00000KT 10SM CLR 13/M03 A2982 RMK AO2 SLP088 T01281033 10128 20072 50004
KSDL 161653Z 00000KT 10SM CLR 11/M04 A2982 RMK AO2 SLP091 T01111044
KSDL 161553Z 00000KT 10SM CLR 09/M05 A2982 RMK AO2 SLP089 T00941050
KSDL 161453Z 26003KT 10SM CLR 07/M04 A2981 RMK AO2 SLP085 T00721044 56017
KSDL 161353Z 00000KT 10SM CLR 08/M06 A2982 RMK AO2 SLP088 T00831061
KSDL 161253Z 00000KT 10SM CLR 08/M06 A2984 RMK AO2 SLP093 T00781061
KSDL 161153Z AUTO 00000KT 10SM CLR 07/M06 A2986 RMK AO2 SLP100 T00721061 10111 20061 58028
KSDL 161053Z AUTO 00000KT 10SM CLR 06/M04 A2989 RMK AO2 SLP112 T00611044
KSDL 160953Z AUTO 00000KT 10SM CLR 08/M04 A2992 RMK AO2 SLP119 T00781044
KSDL 160853Z AUTO 00000KT 10SM CLR 09/M04 A2995 RMK AO2 SLP129 T00891044 58020
KSDL 160753Z AUTO 00000KT 10SM CLR 09/M06 A2997 RMK AO2 SLP137 T00891056
KSDL 160653Z AUTO 27004KT 10SM CLR 09/M04 A2999 RMK AO2 SLP144 T00891039 402170089
KSDL 160553Z AUTO 00000KT 10SM CLR 11/M07 A3001 RMK AO2 SLP150 T01061067 10206 20106 58008
KSDL 160453Z AUTO 00000KT 10SM CLR 11/M06 A3002 RMK AO2 SLP156 T01111061
KSDL 160353Z AUTO 05005KT 10SM CLR 12/M07 A3002 RMK AO2 SLP156 T01221072
KSDL 160253Z 00000KT 10SM CLR 15/M07 A3003 RMK AO2 SLP160 T01501072 58005